Terminal Aerodrome Forecast
Issued by NWS Charleston, WV

Home | Current Version | Previous Version | Text Only | Print | Product List | Glossary On
Versions: 1 2 3 4 5 6 7 8 9 10 11 12 13 14 15 16 17 18 19 20 21 22 23
000
FTUS41 KRLX 060500
TAFCRW
TAF
KCRW 060529Z 0606/0706 00000KT 6SM -SN FEW008 BKN015 OVC035
     FM060900 00000KT 4SM BR SCT005
      TEMPO 0609/0612 2SM BR SCT001
     FM061200 VRB03KT P6SM FEW025
     FM062300 00000KT P6SM SCT200=

USA.gov is the U.S. government's official web portal to all federal, state and local government web resources and services.